Time;durP1;ratioP1;P1;durP2;ratioP2;P2;SDS_P1;SDS_P2;PMS_P1;PMS_P2;Temp;Humidity;BMP_temperature;BMP_pressure;BME280_temperature;BME280_humidity;BME280_pressure;Samples;Min_cycle;Max_cycle;Signal;HPM_P1;HPM_P2
2022/01/08 00:01:57;;;;;;;7.63;6.88;;;1.60;99.90;;;;;;5021180;28;20034;-62
2022/01/08 00:04:22;;;;;;;7.55;6.55;;;1.70;99.90;;;;;;5021067;28;20358;-62
2022/01/08 00:06:48;;;;;;;7.57;6.50;;;1.70;99.90;;;;;;5014099;28;20026;-62
2022/01/08 00:09:13;;;;;;;9.70;6.35;;;1.70;99.90;;;;;;5030055;28;20033;-62
2022/01/08 00:11:42;;;;;;;8.15;6.00;;;1.70;99.90;;;;;;5028863;28;20087;-62
2022/01/08 00:14:10;;;;;;;6.32;5.72;;;1.80;99.90;;;;;;5014444;28;20058;-62
2022/01/08 00:16:37;;;;;;;6.20;5.50;;;1.80;99.90;;;;;;5019002;28;20033;-61
2022/01/08 00:19:07;;;;;;;8.00;6.05;;;1.80;99.90;;;;;;5023166;28;20128;-61
2022/01/08 00:21:33;;;;;;;7.13;5.28;;;1.80;99.90;;;;;;5011071;28;20025;-61
2022/01/08 00:23:59;;;;;;;5.25;4.75;;;1.80;99.90;;;;;;5009921;28;20076;-62
2022/01/08 00:26:31;;;;;;;7.15;6.18;;;1.80;99.90;;;;;;5008163;28;20037;-61
2022/01/08 00:28:56;;;;;;;7.18;6.20;;;1.80;99.90;;;;;;5021938;28;20029;-62
2022/01/08 00:31:22;;;;;;;6.28;5.72;;;1.80;99.90;;;;;;5018280;28;20366;-62
2022/01/08 00:33:48;;;;;;;6.13;5.53;;;1.80;99.90;;;;;;5013622;28;20041;-62
2022/01/08 00:36:13;;;;;;;7.35;6.13;;;1.80;99.90;;;;;;5029835;28;20020;-62
2022/01/08 00:38:39;;;;;;;7.82;6.32;;;1.70;99.90;;;;;;5009608;28;20036;-62
2022/01/08 00:41:05;;;;;;;6.97;6.28;;;1.70;99.90;;;;;;5023940;28;20076;-62
2022/01/08 00:43:31;;;;;;;6.35;5.40;;;1.70;99.90;;;;;;5019263;28;20531;-62
2022/01/08 00:45:57;;;;;;;6.80;5.65;;;1.70;99.90;;;;;;5009695;28;20489;-62
2022/01/08 00:48:22;;;;;;;8.57;5.97;;;1.70;99.90;;;;;;5008352;28;20040;-62
2022/01/08 00:50:49;;;;;;;7.57;6.60;;;1.70;99.90;;;;;;5029159;28;20034;-62
2022/01/08 00:53:15;;;;;;;6.25;5.63;;;1.70;99.90;;;;;;5012739;28;20018;-62
2022/01/08 00:55:41;;;;;;;7.82;6.28;;;1.70;99.90;;;;;;5020827;28;20042;-62
2022/01/08 00:58:06;;;;;;;7.75;5.82;;;1.70;99.90;;;;;;5022297;28;20121;-62
2022/01/08 01:00:32;;;;;;;6.45;5.80;;;1.70;99.90;;;;;;5010167;28;20041;-62
2022/01/08 01:02:58;;;;;;;6.68;5.97;;;1.70;99.90;;;;;;5027143;28;20047;-62
2022/01/08 01:05:23;;;;;;;6.40;5.80;;;1.70;99.90;;;;;;5010754;28;20030;-62
2022/01/08 01:07:49;;;;;;;7.80;5.65;;;1.60;99.90;;;;;;5021038;28;20492;-62
2022/01/08 01:10:18;;;;;;;7.05;6.18;;;1.60;99.90;;;;;;5035685;28;20489;-62
2022/01/08 01:12:44;;;;;;;9.85;6.80;;;1.60;99.90;;;;;;5012820;28;20079;-62
2022/01/08 01:15:12;;;;;;;6.50;5.80;;;1.60;99.90;;;;;;5028943;28;20028;-62
2022/01/08 01:17:38;;;;;;;8.38;6.07;;;1.60;99.90;;;;;;5024238;28;20493;-62
2022/01/08 01:20:08;;;;;;;7.40;5.60;;;1.60;99.90;;;;;;5006584;28;20037;-62
2022/01/08 01:22:51;;;;;;;9.00;6.07;;;1.60;99.90;;;;;;5008169;28;20025;-62
2022/01/08 01:25:23;;;;;;;5.90;5.30;;;1.60;99.90;;;;;;5007628;28;20083;-62
2022/01/08 01:41:36;;;;;;;8.07;7.28;;;1.60;99.90;;;;;;5025004;28;20449;-62
2022/01/08 01:49:17;;;;;;;8.50;7.70;;;1.60;99.90;;;;;;5008139;28;20033;-62
2022/01/08 01:51:43;;;;;;;7.88;7.18;;;1.60;99.90;;;;;;5011987;28;20038;-62
2022/01/08 01:54:09;;;;;;;10.60;8.50;;;1.60;99.90;;;;;;5027929;28;20021;-62
2022/01/08 01:56:36;;;;;;;7.07;6.38;;;1.50;99.90;;;;;;5012450;28;20473;-62
2022/01/08 01:59:02;;;;;;;7.82;6.65;;;1.60;99.90;;;;;;5035901;28;20033;-62
2022/01/08 02:01:28;;;;;;;10.20;7.40;;;1.60;99.90;;;;;;5018717;28;20026;-62
2022/01/08 02:03:55;;;;;;;8.35;6.72;;;1.60;99.90;;;;;;5009515;28;20396;-62
2022/01/08 02:06:21;;;;;;;8.05;6.90;;;1.60;99.90;;;;;;5028433;28;20505;-63
2022/01/08 02:08:49;;;;;;;8.23;7.03;;;1.60;99.90;;;;;;5007602;28;20118;-62
2022/01/08 02:11:18;;;;;;;9.40;6.45;;;1.60;99.90;;;;;;5006674;28;20022;-62
2022/01/08 02:13:43;;;;;;;9.07;8.02;;;1.60;99.90;;;;;;5008530;28;20053;-62
2022/01/08 02:16:17;;;;;;;9.55;6.93;;;1.60;99.90;;;;;;5014011;28;20459;-62
2022/01/08 02:18:46;;;;;;;7.72;6.97;;;1.60;99.90;;;;;;5023440;28;20061;-62
2022/01/08 02:21:14;;;;;;;7.30;6.50;;;1.60;99.90;;;;;;5008398;28;20045;-62
2022/01/08 02:23:41;;;;;;;15.98;7.45;;;1.60;99.90;;;;;;5025839;28;20109;-63
2022/01/08 02:26:08;;;;;;;6.65;5.78;;;1.60;99.90;;;;;;5013641;28;20404;-62
2022/01/08 02:28:39;;;;;;;7.53;6.65;;;1.70;99.90;;;;;;5018211;28;20492;-63
2022/01/08 02:31:08;;;;;;;7.65;6.82;;;1.70;99.90;;;;;;5022263;28;20068;-62
2022/01/08 02:33:34;;;;;;;10.00;7.32;;;1.70;99.90;;;;;;5009329;28;20026;-63
2022/01/08 02:36:06;;;;;;;8.65;6.55;;;1.70;99.90;;;;;;5028669;28;20073;-62
2022/01/08 02:38:32;;;;;;;8.05;7.28;;;1.70;99.90;;;;;;5023307;28;20101;-62
2022/01/08 02:41:05;;;;;;;8.23;7.43;;;1.70;99.90;;;;;;5010563;28;20108;-62
2022/01/08 02:43:38;;;;;;;9.63;7.47;;;1.70;99.90;;;;;;5017288;28;20026;-63
2022/01/08 02:46:04;;;;;;;9.73;8.18;;;1.70;99.90;;;;;;5012075;28;20034;-62
2022/01/08 02:48:30;;;;;;;9.23;8.30;;;1.70;99.90;;;;;;5025693;28;20465;-62
2022/01/08 02:50:55;;;;;;;8.20;7.50;;;1.70;99.90;;;;;;5006745;28;20410;-62
2022/01/08 02:53:21;;;;;;;12.93;8.55;;;1.60;99.90;;;;;;5024025;28;20026;-62
2022/01/08 02:55:48;;;;;;;9.93;9.02;;;1.60;99.90;;;;;;5014342;28;20029;-62
2022/01/08 02:58:14;;;;;;;12.35;9.25;;;1.60;99.90;;;;;;5014563;28;20495;-62
2022/01/08 03:00:40;;;;;;;9.25;8.00;;;1.60;99.90;;;;;;5024580;28;20078;-62
2022/01/08 03:03:05;;;;;;;11.07;8.43;;;1.60;99.90;;;;;;5008129;28;20022;-62
2022/01/08 03:05:31;;;;;;;9.02;7.95;;;1.60;99.90;;;;;;5024735;28;20037;-62
2022/01/08 03:07:57;;;;;;;9.80;8.68;;;1.50;99.90;;;;;;5013685;28;20088;-62
2022/01/08 03:10:22;;;;;;;11.48;9.70;;;1.50;99.90;;;;;;5016395;28;20104;-62
2022/01/08 03:12:49;;;;;;;11.77;8.48;;;1.50;99.90;;;;;;5023101;28;20037;-62
2022/01/08 03:15:18;;;;;;;10.18;7.55;;;1.50;99.90;;;;;;5008578;28;20034;-62
2022/01/08 03:17:44;;;;;;;10.68;8.68;;;1.50;99.90;;;;;;5005927;28;20045;-62
2022/01/08 03:20:13;;;;;;;13.85;8.93;;;1.50;99.90;;;;;;5006991;28;20026;-62
2022/01/08 03:22:42;;;;;;;10.18;9.18;;;1.50;99.90;;;;;;5019975;28;20048;-62
2022/01/08 03:25:08;;;;;;;9.73;8.65;;;1.50;99.90;;;;;;5029459;28;20480;-63
2022/01/08 03:27:34;;;;;;;13.57;8.23;;;1.50;99.90;;;;;;5029432;28;20075;-62
2022/01/08 03:30:00;;;;;;;11.27;8.98;;;1.50;99.90;;;;;;5010775;28;20017;-62
2022/01/08 03:32:26;;;;;;;10.18;8.95;;;1.40;99.90;;;;;;5024516;28;20030;-62
2022/01/08 03:34:52;;;;;;;10.57;9.27;;;1.40;99.90;;;;;;5017764;28;20045;-62
2022/01/08 03:37:18;;;;;;;10.27;9.05;;;1.40;99.90;;;;;;5018938;28;20711;-62
2022/01/08 03:39:44;;;;;;;9.88;8.82;;;1.40;99.90;;;;;;5025679;28;20026;-62
2022/01/08 03:42:10;;;;;;;15.43;9.70;;;1.40;99.90;;;;;;5010675;28;20080;-62
2022/01/08 03:44:36;;;;;;;10.50;9.32;;;1.40;99.90;;;;;;5029622;28;20040;-62
2022/01/08 03:47:23;;;;;;;10.80;8.43;;;1.40;99.90;;;;;;5015664;28;20023;-62
2022/01/08 03:49:48;;;;;;;11.40;9.07;;;1.40;99.90;;;;;;5022317;28;20148;-62
2022/01/08 03:52:13;;;;;;;11.77;9.02;;;1.40;99.90;;;;;;5021081;28;20033;-62
2022/01/08 03:54:54;;;;;;;10.52;8.63;;;1.40;99.90;;;;;;5028122;28;20401;-63
2022/01/08 03:57:20;;;;;;;10.10;8.60;;;1.40;99.90;;;;;;5027348;28;20264;-62
2022/01/08 03:59:46;;;;;;;9.60;8.43;;;1.40;99.90;;;;;;5010984;28;20551;-62
2022/01/08 04:02:11;;;;;;;10.43;8.60;;;1.40;99.90;;;;;;5022688;28;20029;-62
2022/01/08 04:04:52;;;;;;;9.35;8.30;;;1.40;99.90;;;;;;5019349;28;20038;-62
2022/01/08 04:07:18;;;;;;;10.75;7.10;;;1.40;99.90;;;;;;5007578;28;20114;-62
2022/01/08 04:09:45;;;;;;;10.20;8.40;;;1.40;99.90;;;;;;5010743;28;20109;-62
2022/01/08 04:12:15;;;;;;;9.68;7.72;;;1.50;99.90;;;;;;5009459;28;20477;-62
2022/01/08 04:15:04;;;;;;;8.75;7.82;;;1.50;99.90;;;;;;5028162;28;20052;-62
2022/01/08 04:17:30;;;;;;;11.55;8.30;;;1.50;99.90;;;;;;5011961;28;20414;-62
2022/01/08 04:19:55;;;;;;;8.75;7.68;;;1.40;99.90;;;;;;5023311;28;20564;-62
2022/01/08 04:22:23;;;;;;;13.60;8.45;;;1.40;99.90;;;;;;5021363;28;20105;-62
2022/01/08 04:24:49;;;;;;;11.13;8.30;;;1.40;99.90;;;;;;5013944;28;20121;-62
2022/01/08 04:27:15;;;;;;;11.38;8.55;;;1.40;99.90;;;;;;5030615;28;20113;-62
2022/01/08 04:29:56;;;;;;;15.32;9.85;;;1.40;99.90;;;;;;5009589;28;20037;-62
2022/01/08 04:32:21;;;;;;;9.75;8.68;;;1.30;99.90;;;;;;5025757;28;20025;-63
2022/01/08 04:34:47;;;;;;;10.35;8.70;;;1.30;99.90;;;;;;5017859;28;20038;-65
2022/01/08 04:37:13;;;;;;;11.27;9.32;;;1.20;99.90;;;;;;5016063;28;20437;-62
2022/01/08 04:39:39;;;;;;;10.18;9.10;;;1.20;99.90;;;;;;5025526;28;20038;-63
2022/01/08 04:42:05;;;;;;;15.63;11.35;;;1.20;99.90;;;;;;5009689;28;20026;-63
2022/01/08 04:44:30;;;;;;;11.88;10.40;;;1.20;99.90;;;;;;5027513;28;20117;-63
2022/01/08 04:46:56;;;;;;;13.02;10.73;;;1.20;99.90;;;;;;5016317;28;20026;-63
2022/01/08 04:49:22;;;;;;;12.55;9.65;;;1.10;99.90;;;;;;5019982;28;20104;-62
2022/01/08 04:51:47;;;;;;;13.75;11.15;;;1.10;99.90;;;;;;5024308;28;20037;-62
2022/01/08 04:54:13;;;;;;;14.52;10.98;;;1.10;99.90;;;;;;5009536;28;20030;-62
2022/01/08 04:56:39;;;;;;;17.88;11.95;;;1.10;99.90;;;;;;5009549;28;20112;-62
2022/01/08 04:59:04;;;;;;;15.10;10.45;;;1.10;99.90;;;;;;5008315;28;20440;-62
2022/01/08 05:01:30;;;;;;;13.10;11.32;;;1.10;99.90;;;;;;5009977;28;20030;-62
2022/01/08 05:03:57;;;;;;;13.35;10.90;;;1.10;99.90;;;;;;5013158;28;20021;-62
2022/01/08 05:06:22;;;;;;;12.75;11.13;;;1.10;99.90;;;;;;5034872;28;20028;-62
2022/01/08 05:08:48;;;;;;;17.05;11.95;;;1.10;99.90;;;;;;5008840;28;20396;-62
2022/01/08 05:11:14;;;;;;;19.75;12.98;;;1.10;99.90;;;;;;5024812;28;20049;-63
2022/01/08 05:13:39;;;;;;;19.65;13.55;;;1.10;99.90;;;;;;5018099;28;20053;-63
2022/01/08 05:16:06;;;;;;;21.95;13.07;;;1.00;99.90;;;;;;5015208;28;20064;-63
2022/01/08 05:18:32;;;;;;;20.13;13.88;;;1.00;99.90;;;;;;5027422;28;20029;-62
2022/01/08 05:23:39;;;;;;;23.75;14.35;;;1.00;99.90;;;;;;5006872;28;20026;-62
2022/01/08 05:26:05;;;;;;;22.02;14.35;;;1.00;99.90;;;;;;5023178;28;20055;-62
2022/01/08 05:28:31;;;;;;;20.05;14.15;;;1.00;99.90;;;;;;5019621;28;20057;-62
2022/01/08 05:30:56;;;;;;;20.33;14.23;;;1.00;99.90;;;;;;5014336;28;20049;-62
2022/01/08 05:33:22;;;;;;;24.00;14.40;;;1.00;99.90;;;;;;5028022;28;20108;-63
2022/01/08 05:35:47;;;;;;;22.45;15.23;;;0.90;99.90;;;;;;5009772;28;20032;-62
2022/01/08 05:38:13;;;;;;;22.23;13.68;;;0.90;99.90;;;;;;5023969;28;20079;-62
2022/01/08 05:40:39;;;;;;;25.00;14.52;;;0.90;99.90;;;;;;5016869;28;20029;-62
2022/01/08 05:43:04;;;;;;;25.65;15.35;;;1.00;99.90;;;;;;5014076;28;20125;-62
2022/01/08 05:45:30;;;;;;;23.45;15.52;;;1.00;99.90;;;;;;5026628;28;20017;-62
2022/01/08 05:47:56;;;;;;;24.98;14.57;;;0.90;99.90;;;;;;5009395;28;20084;-62
2022/01/08 05:50:21;;;;;;;19.90;14.45;;;0.90;99.90;;;;;;5008089;28;20371;-62
2022/01/08 05:52:48;;;;;;;25.45;14.80;;;0.90;99.90;;;;;;5020214;28;20435;-62
2022/01/08 05:55:15;;;;;;;23.20;14.50;;;0.90;99.90;;;;;;5018722;28;20052;-63
2022/01/08 05:57:41;;;;;;;21.02;13.75;;;0.90;99.90;;;;;;5011488;28;20386;-62
2022/01/08 06:00:07;;;;;;;25.75;14.65;;;0.90;99.90;;;;;;5027557;28;20036;-62
2022/01/08 06:02:34;;;;;;;26.25;15.38;;;0.90;99.90;;;;;;5010244;28;20022;-63
2022/01/08 06:04:59;;;;;;;29.73;17.30;;;0.90;99.90;;;;;;5022263;28;20033;-62
2022/01/08 06:07:25;;;;;;;25.45;15.50;;;0.90;99.90;;;;;;5015812;28;20029;-62
2022/01/08 06:09:50;;;;;;;32.97;15.68;;;0.80;99.90;;;;;;5013050;28;20033;-62
2022/01/08 06:12:16;;;;;;;31.75;15.70;;;0.80;99.90;;;;;;5028036;28;20733;-63
2022/01/08 06:14:54;;;;;;;23.65;15.73;;;0.80;99.90;;;;;;5008379;28;20091;-62
2022/01/08 06:17:19;;;;;;;27.33;16.05;;;0.90;99.90;;;;;;5022785;28;20022;-62
2022/01/08 06:19:45;;;;;;;31.80;16.15;;;0.80;99.90;;;;;;5016353;28;20030;-62
2022/01/08 06:22:15;;;;;;;36.75;17.20;;;0.80;99.90;;;;;;5014816;28;20025;-63
2022/01/08 06:24:41;;;;;;;44.25;19.40;;;0.80;99.90;;;;;;5024167;28;20030;-62
2022/01/08 06:27:07;;;;;;;35.63;17.70;;;0.80;99.90;;;;;;5014292;28;20037;-62
2022/01/08 06:29:32;;;;;;;38.38;18.90;;;0.80;99.90;;;;;;5026103;28;20025;-62
2022/01/08 06:31:58;;;;;;;34.97;19.35;;;0.80;99.90;;;;;;5014726;28;20026;-63
2022/01/08 06:34:27;;;;;;;36.30;18.67;;;0.70;99.90;;;;;;5016599;28;20144;-63
2022/01/08 06:36:52;;;;;;;35.33;18.27;;;0.70;99.90;;;;;;5027191;28;20388;-62
2022/01/08 06:39:18;;;;;;;44.72;18.58;;;0.70;99.90;;;;;;5026942;28;20117;-62
2022/01/08 06:41:44;;;;;;;40.03;19.73;;;0.70;99.90;;;;;;5027840;28;20036;-62
2022/01/08 06:44:13;;;;;;;35.92;19.60;;;0.70;99.90;;;;;;5027316;28;20022;-62
2022/01/08 06:46:40;;;;;;;36.13;17.55;;;0.70;99.90;;;;;;5026955;28;20049;-63
2022/01/08 06:49:07;;;;;;;36.00;18.33;;;0.70;99.90;;;;;;5028298;28;20022;-62
2022/01/08 06:51:32;;;;;;;40.85;20.75;;;0.70;99.90;;;;;;5027155;28;20060;-62
2022/01/08 06:53:58;;;;;;;39.97;18.60;;;0.70;99.90;;;;;;5028168;28;20045;-62
2022/01/08 06:56:24;;;;;;;34.50;18.45;;;0.70;99.90;;;;;;5027364;28;20099;-62
2022/01/08 06:58:49;;;;;;;39.13;19.38;;;0.70;99.90;;;;;;5030656;28;20040;-62
2022/01/08 07:01:15;;;;;;;30.10;17.23;;;0.70;99.90;;;;;;5031446;28;20411;-64
2022/01/08 07:03:41;;;;;;;35.38;17.95;;;0.60;99.90;;;;;;5031616;28;20560;-60
2022/01/08 07:06:06;;;;;;;30.77;18.00;;;0.60;99.90;;;;;;5032502;28;20389;-60
2022/01/08 07:08:32;;;;;;;44.97;19.90;;;0.70;99.90;;;;;;5031052;28;20559;-61
2022/01/08 07:10:57;;;;;;;34.97;17.73;;;0.60;99.90;;;;;;5031227;28;20049;-60
2022/01/08 07:13:23;;;;;;;31.65;16.88;;;0.70;99.90;;;;;;5030665;28;20034;-60
2022/01/08 07:15:49;;;;;;;31.15;16.92;;;0.70;99.90;;;;;;5030684;28;20132;-60
2022/01/08 07:18:14;;;;;;;36.08;19.60;;;0.70;99.90;;;;;;5029654;28;20025;-61
2022/01/08 07:20:40;;;;;;;31.80;17.25;;;0.70;99.90;;;;;;5030628;28;20788;-60
2022/01/08 07:23:08;;;;;;;35.75;19.13;;;0.70;99.90;;;;;;5030871;28;20396;-60
2022/01/08 07:25:34;;;;;;;35.15;17.30;;;0.70;99.90;;;;;;5030280;28;20406;-60
2022/01/08 07:28:00;;;;;;;29.55;17.42;;;0.70;99.90;;;;;;5031462;28;20034;-60
2022/01/08 07:30:25;;;;;;;36.97;18.13;;;0.70;99.90;;;;;;5031033;28;20108;-60
2022/01/08 07:32:52;;;;;;;35.45;17.73;;;0.70;99.90;;;;;;5031678;28;20977;-60
2022/01/08 07:35:33;;;;;;;33.58;16.73;;;0.70;99.90;;;;;;5029608;28;20510;-60
2022/01/08 07:37:58;;;;;;;31.83;17.10;;;0.70;99.90;;;;;;5029997;28;20057;-60
2022/01/08 07:40:24;;;;;;;33.65;18.67;;;0.70;99.90;;;;;;5029929;28;20053;-60
2022/01/08 07:42:50;;;;;;;37.63;19.17;;;0.70;99.90;;;;;;5030308;28;20061;-60
2022/01/08 07:45:18;;;;;;;34.67;19.52;;;0.70;99.90;;;;;;5030799;28;20029;-60
2022/01/08 07:47:44;;;;;;;32.92;17.95;;;0.70;99.90;;;;;;5030905;28;20032;-61
2022/01/08 07:50:10;;;;;;;33.97;18.13;;;0.70;99.90;;;;;;5031307;28;20106;-61
2022/01/08 07:52:36;;;;;;;29.30;17.45;;;0.70;99.90;;;;;;5030265;28;20033;-60
2022/01/08 07:55:03;;;;;;;29.63;17.25;;;0.80;99.90;;;;;;5029975;28;20088;-60
2022/01/08 07:57:28;;;;;;;27.92;17.90;;;0.70;99.90;;;;;;5030832;28;20022;-61
2022/01/08 07:59:57;;;;;;;34.25;18.15;;;0.70;99.90;;;;;;5031441;28;20501;-60
2022/01/08 08:02:23;;;;;;;34.53;18.38;;;0.70;99.90;;;;;;5044176;28;20029;-60
2022/01/08 08:04:48;;;;;;;38.58;17.95;;;0.70;99.90;;;;;;5030729;28;20033;-60
2022/01/08 08:07:24;;;;;;;34.60;17.85;;;0.70;99.90;;;;;;5028497;28;20041;-60
2022/01/08 08:09:50;;;;;;;39.60;18.77;;;0.80;99.90;;;;;;5029279;28;20045;-60
2022/01/08 08:12:15;;;;;;;38.05;20.27;;;0.70;99.90;;;;;;5029911;28;20056;-60
2022/01/08 08:14:44;;;;;;;36.20;17.63;;;0.80;99.90;;;;;;5029859;28;20038;-60
2022/01/08 08:17:09;;;;;;;32.55;17.63;;;0.80;99.90;;;;;;5030576;28;20029;-60
2022/01/08 08:19:38;;;;;;;36.88;19.67;;;0.80;99.90;;;;;;5029724;28;20033;-60
2022/01/08 08:22:18;;;;;;;31.75;17.63;;;0.80;99.90;;;;;;5028887;28;20033;-61
2022/01/08 08:24:46;;;;;;;30.42;17.17;;;0.80;99.90;;;;;;5028467;28;20029;-60
2022/01/08 08:27:14;;;;;;;35.17;17.60;;;0.80;99.90;;;;;;5030070;28;20025;-60
2022/01/08 08:29:52;;;;;;;36.88;19.00;;;0.80;99.90;;;;;;5029848;28;20026;-61
2022/01/08 08:32:27;;;;;;;33.78;17.88;;;0.80;99.90;;;;;;5025640;28;20028;-60
2022/01/08 08:34:52;;;;;;;32.60;18.08;;;0.80;99.90;;;;;;5028666;28;20033;-61
2022/01/08 08:37:18;;;;;;;29.02;17.42;;;0.80;99.90;;;;;;5029345;28;20025;-60
2022/01/08 08:39:47;;;;;;;27.65;17.02;;;0.90;99.90;;;;;;5029635;28;20586;-60
2022/01/08 08:42:25;;;;;;;32.92;19.33;;;0.90;99.90;;;;;;5028769;28;20065;-60
2022/01/08 08:44:54;;;;;;;34.58;20.88;;;0.90;99.90;;;;;;5029459;28;20464;-60
2022/01/08 08:47:22;;;;;;;30.15;18.17;;;1.00;99.90;;;;;;5028148;28;20401;-60
2022/01/08 08:49:48;;;;;;;37.92;19.88;;;1.00;99.90;;;;;;5029871;28;20029;-60
2022/01/08 08:52:14;;;;;;;38.08;20.27;;;1.10;99.90;;;;;;5028867;28;20037;-60
2022/01/08 08:54:41;;;;;;;29.33;19.00;;;1.10;99.90;;;;;;5027121;28;20034;-61
2022/01/08 08:57:07;;;;;;;29.13;18.25;;;1.20;99.90;;;;;;5028829;28;20022;-60
2022/01/08 08:59:33;;;;;;;47.78;24.67;;;1.20;99.90;;;;;;5028280;28;20048;-60
2022/01/08 09:01:59;;;;;;;40.50;20.88;;;1.30;99.90;;;;;;5029182;28;20030;-60
2022/01/08 09:04:24;;;;;;;30.77;18.85;;;1.30;99.90;;;;;;5028873;28;20026;-60
2022/01/08 09:06:56;;;;;;;32.50;21.05;;;1.50;99.90;;;;;;5029534;28;20025;-60
2022/01/08 09:09:34;;;;;;;36.45;22.08;;;1.50;99.90;;;;;;5028087;28;20045;-60
2022/01/08 09:12:00;;;;;;;39.08;21.50;;;1.60;99.90;;;;;;5060744;28;20022;-60
2022/01/08 09:14:28;;;;;;;24.70;16.50;;;1.60;99.90;;;;;;5029216;28;20052;-60
2022/01/08 09:16:57;;;;;;;16.75;14.93;;;1.60;99.90;;;;;;5028810;28;20026;-60
2022/01/08 09:19:25;;;;;;;20.40;14.93;;;1.50;99.90;;;;;;5028199;28;20032;-60
2022/01/08 09:21:54;;;;;;;20.85;15.18;;;1.50;99.90;;;;;;5027040;28;20116;-60
2022/01/08 09:24:20;;;;;;;18.02;13.88;;;1.50;99.90;;;;;;5028753;28;20028;-61
2022/01/08 09:26:47;;;;;;;14.32;12.10;;;1.50;99.90;;;;;;5029094;28;20076;-60
2022/01/08 09:29:25;;;;;;;20.33;16.10;;;1.50;99.90;;;;;;5029115;28;20138;-60
2022/01/08 09:31:51;;;;;;;16.00;11.85;;;1.60;99.90;;;;;;5026803;28;20034;-60
2022/01/08 09:34:22;;;;;;;12.05;10.60;;;1.60;99.90;;;;;;5028654;28;20037;-60
2022/01/08 09:36:49;;;;;;;14.93;12.15;;;1.60;99.90;;;;;;5028657;28;20114;-60
2022/01/08 09:39:15;;;;;;;12.98;11.10;;;1.60;99.90;;;;;;5027084;28;20021;-60
2022/01/08 09:41:41;;;;;;;15.35;13.52;;;1.60;99.90;;;;;;5028072;28;20037;-60
2022/01/08 09:44:09;;;;;;;13.02;11.73;;;1.60;99.90;;;;;;5027296;28;20022;-61
2022/01/08 09:46:35;;;;;;;14.82;11.55;;;1.60;99.90;;;;;;5026995;28;20029;-61
2022/01/08 09:49:01;;;;;;;18.65;12.63;;;1.70;99.90;;;;;;5027488;28;20435;-61
2022/01/08 09:51:26;;;;;;;13.88;12.30;;;1.70;99.90;;;;;;5027193;28;20049;-61
2022/01/08 09:53:54;;;;;;;12.80;11.32;;;1.80;99.90;;;;;;5027398;28;20080;-60
2022/01/08 09:56:22;;;;;;;11.43;10.27;;;1.80;99.90;;;;;;5027404;28;20032;-61
2022/01/08 09:58:47;;;;;;;9.00;8.10;;;1.80;99.90;;;;;;5027981;28;20113;-61
2022/01/08 10:01:34;;;;;;;8.13;7.32;;;1.90;99.90;;;;;;5026999;28;20500;-61
2022/01/08 10:04:01;;;;;;;5.72;5.00;;;1.90;99.90;;;;;;5027774;28;20108;-61
2022/01/08 10:06:30;;;;;;;3.92;3.53;;;1.90;99.90;;;;;;5027746;28;20049;-61
2022/01/08 10:08:56;;;;;;;4.00;3.53;;;1.90;99.90;;;;;;5028865;28;20014;-60
2022/01/08 10:11:23;;;;;;;2.53;2.03;;;1.90;99.90;;;;;;5027040;28;20103;-60
2022/01/08 10:13:59;;;;;;;2.72;2.30;;;2.00;99.90;;;;;;5027933;28;20065;-61
2022/01/08 10:19:24;;;;;;;5.07;2.55;;;2.20;99.90;;;;;;5027638;28;20040;-60
2022/01/08 10:21:51;;;;;;;5.05;4.07;;;2.30;99.90;;;;;;5027262;28;20029;-60
2022/01/08 10:24:28;;;;;;;6.97;5.90;;;2.40;99.90;;;;;;5028343;28;20029;-61
2022/01/08 10:27:02;;;;;;;5.75;5.25;;;2.50;99.90;;;;;;5027379;28;20108;-60
2022/01/08 10:29:28;;;;;;;6.30;5.45;;;2.50;99.90;;;;;;5026951;28;20052;-61
2022/01/08 10:31:54;;;;;;;5.25;4.75;;;2.40;99.90;;;;;;5016895;28;20061;-60
2022/01/08 10:34:25;;;;;;;5.00;4.50;;;2.40;99.90;;;;;;5009572;28;20041;-60
2022/01/08 10:36:59;;;;;;;4.57;4.15;;;2.40;99.90;;;;;;5016536;28;20112;-61
2022/01/08 10:39:28;;;;;;;5.70;5.10;;;2.50;99.90;;;;;;5030800;28;20026;-62
2022/01/08 10:41:56;;;;;;;5.93;5.32;;;2.50;99.90;;;;;;5012948;28;20496;-61
2022/01/08 10:44:27;;;;;;;5.93;3.97;;;2.50;99.90;;;;;;5027989;28;20489;-60
2022/01/08 10:47:00;;;;;;;4.80;4.40;;;2.60;99.90;;;;;;5019270;28;20056;-60
2022/01/08 10:49:29;;;;;;;5.28;4.35;;;2.60;99.90;;;;;;5021168;28;20038;-61
2022/01/08 10:51:57;;;;;;;6.53;3.60;;;2.60;99.90;;;;;;5026551;28;20554;-61
2022/01/08 10:54:28;;;;;;;3.97;3.42;;;2.60;99.90;;;;;;5011903;28;20033;-61
2022/01/08 10:56:59;;;;;;;;;;;2.60;99.90;;;;;;5012801;28;20152;-61
2022/01/08 10:59:26;;;;;;;;;;;2.60;99.90;;;;;;5029641;28;19974;-61
2022/01/08 11:01:56;;;;;;;2.53;2.22;;;2.60;99.90;;;;;;5017218;28;19909;-61
2022/01/08 11:04:37;;;;;;;3.40;2.75;;;2.60;99.90;;;;;;5020623;28;20026;-61
2022/01/08 11:07:07;;;;;;;3.47;2.88;;;2.70;99.90;;;;;;5025189;28;20030;-60
2022/01/08 11:09:36;;;;;;;3.60;2.28;;;2.80;99.90;;;;;;5012446;28;20071;-60
2022/01/08 11:12:02;;;;;;;3.80;2.53;;;2.90;99.90;;;;;;5031637;28;20109;-62
2022/01/08 11:17:23;;;;;;;2.28;1.83;;;3.10;99.90;;;;;;5027925;28;20057;-61
2022/01/08 11:19:53;;;;;;;2.65;1.67;;;3.10;99.90;;;;;;5018244;28;20034;-61
2022/01/08 11:22:21;;;;;;;1.83;1.50;;;3.00;99.90;;;;;;5010907;28;20157;-61
2022/01/08 11:25:02;;;;;;;3.67;1.52;;;2.90;99.90;;;;;;5015435;28;20029;-60
2022/01/08 11:28:00;;;;;;;2.60;1.98;;;2.90;99.90;;;;;;5029174;28;20022;-60
2022/01/08 11:30:32;;;;;;;2.67;1.77;;;2.90;99.90;;;;;;5010997;28;20014;-60
2022/01/08 11:33:03;;;;;;;3.28;1.92;;;2.70;99.90;;;;;;5011207;28;20022;-60
2022/01/08 11:35:31;;;;;;;;;;;2.60;99.90;;;;;;5028993;28;20633;-60
2022/01/08 11:37:56;;;;;;;4.07;2.55;;;2.50;99.90;;;;;;5017082;28;19909;-60
2022/01/08 11:40:26;;;;;;;2.35;2.10;;;2.50;99.90;;;;;;5018580;28;20025;-61
2022/01/08 11:42:52;;;;;;;2.85;2.50;;;2.50;99.90;;;;;;5024686;28;20632;-61
2022/01/08 11:45:25;;;;;;;4.57;2.45;;;2.50;99.90;;;;;;5008686;28;20021;-60
2022/01/08 11:47:54;;;;;;;3.38;2.20;;;2.50;99.90;;;;;;5031310;28;20033;-60
2022/01/08 11:50:23;;;;;;;4.25;2.40;;;2.50;99.90;;;;;;5013965;28;20068;-61
2022/01/08 11:53:15;;;;;;;3.88;2.10;;;2.50;99.90;;;;;;5022942;28;20033;-60
2022/01/08 11:55:42;;;;;;;3.67;2.10;;;2.60;99.90;;;;;;5017357;28;20386;-60
2022/01/08 11:58:23;;;;;;;5.63;2.67;;;2.70;99.90;;;;;;5018022;28;20053;-61
2022/01/08 12:01:01;;;;;;;2.72;2.22;;;2.70;99.90;;;;;;5023135;28;20041;-60
2022/01/08 12:03:37;;;;;;;6.65;2.58;;;2.80;99.90;;;;;;5009121;28;20045;-61
2022/01/08 12:06:25;;;;;;;4.30;2.28;;;2.80;99.90;;;;;;5028905;28;20044;-60
2022/01/08 12:09:20;;;;;;;7.47;2.30;;;2.90;99.90;;;;;;5012677;28;20506;-61
2022/01/08 12:12:07;;;;;;;2.67;1.88;;;3.00;99.90;;;;;;5029342;28;20182;-61
2022/01/08 12:14:38;;;;;;;3.00;2.70;;;3.00;99.90;;;;;;5012004;28;20440;-60
2022/01/08 12:17:21;;;;;;;3.75;2.13;;;3.10;99.90;;;;;;5023619;28;20025;-61
2022/01/08 12:19:51;;;;;;;3.10;2.17;;;3.10;99.90;;;;;;5018132;28;20564;-61
2022/01/08 12:22:16;;;;;;;4.40;2.10;;;3.10;99.90;;;;;;5017653;28;20025;-60
2022/01/08 12:24:53;;;;;;;3.67;1.95;;;3.10;99.90;;;;;;5026425;28;20125;-60
2022/01/08 12:27:33;;;;;;;2.72;1.80;;;3.20;99.90;;;;;;5010693;28;20420;-61
2022/01/08 12:30:01;;;;;;;2.67;1.88;;;3.30;99.90;;;;;;5029027;28;20021;-60
2022/01/08 12:32:35;;;;;;;2.88;1.85;;;3.30;99.90;;;;;;5012646;28;20094;-60
2022/01/08 12:35:23;;;;;;;5.40;2.97;;;3.40;99.90;;;;;;5023206;28;20513;-60
2022/01/08 12:37:54;;;;;;;2.42;2.22;;;3.40;99.90;;;;;;5033289;28;20030;-60
2022/01/08 12:40:45;;;;;;;3.95;2.42;;;3.30;99.90;;;;;;5018099;28;20033;-60
2022/01/08 12:43:26;;;;;;;3.53;2.63;;;3.40;99.90;;;;;;5022651;28;20022;-60
2022/01/08 12:46:09;;;;;;;7.70;3.13;;;3.30;99.90;;;;;;5010612;28;20056;-61
2022/01/08 12:48:35;;;;;;;3.80;2.42;;;3.20;99.90;;;;;;5027730;28;20024;-60
2022/01/08 12:51:05;;;;;;;5.05;2.92;;;3.20;99.90;;;;;;5008853;28;20022;-60
2022/01/08 12:53:32;;;;;;;4.95;2.38;;;3.20;99.90;;;;;;5007683;28;20029;-60
2022/01/08 12:55:58;;;;;;;3.97;3.00;;;3.10;99.90;;;;;;5022030;28;20036;-60
2022/01/08 12:58:42;;;;;;;4.00;2.45;;;3.20;99.90;;;;;;5028532;28;20029;-60
2022/01/08 13:01:13;;;;;;;4.47;2.55;;;3.20;99.90;;;;;;5022691;28;20089;-60
2022/01/08 13:03:40;;;;;;;3.05;2.70;;;3.20;99.90;;;;;;5011559;28;20026;-61
2022/01/08 13:06:14;;;;;;;3.72;2.13;;;3.10;99.90;;;;;;5030139;28;20021;-61
2022/01/08 13:08:47;;;;;;;1.80;1.70;;;3.10;99.90;;;;;;5009518;28;20037;-60
2022/01/08 13:11:16;;;;;;;2.70;2.00;;;3.10;99.90;;;;;;5009309;28;20030;-61
2022/01/08 13:13:44;;;;;;;2.50;2.22;;;3.00;99.90;;;;;;5009617;28;20068;-61
2022/01/08 13:16:21;;;;;;;8.05;3.45;;;2.90;99.90;;;;;;5015990;28;20038;-60
2022/01/08 13:18:53;;;;;;;5.45;2.70;;;2.90;99.90;;;;;;5025498;28;20045;-60
2022/01/08 13:21:19;;;;;;;3.10;2.60;;;2.90;99.90;;;;;;5009684;28;20017;-60
2022/01/08 13:23:45;;;;;;;5.70;3.63;;;2.80;99.90;;;;;;5009638;28;20044;-60